createdAt,value
2019-02-20T00:02:02.781Z,7.50
2019-02-20T00:04:31.275Z,8.83
2019-02-20T00:06:59.619Z,8.53
2019-02-20T00:09:28.068Z,8.27
2019-02-20T00:11:56.539Z,8.83
2019-02-20T00:14:24.891Z,9.70
2019-02-20T00:16:53.279Z,11.00
2019-02-20T00:19:21.789Z,9.70
2019-02-20T00:21:50.231Z,9.43
2019-02-20T00:24:18.680Z,9.73
2019-02-20T00:26:47.217Z,8.97
2019-02-20T00:29:15.643Z,9.00
2019-02-20T00:31:44.007Z,8.43
2019-02-20T00:34:12.438Z,11.17
2019-02-20T00:36:40.917Z,9.10
2019-02-20T00:39:09.936Z,10.47
2019-02-20T00:41:38.375Z,8.93
2019-02-20T00:44:25.015Z,8.67
2019-02-20T00:47:05.236Z,9.20
2019-02-20T00:49:37.583Z,8.97
2019-02-20T00:52:31.263Z,9.10
2019-02-20T00:54:59.730Z,8.33
2019-02-20T00:57:28.198Z,10.03
2019-02-20T00:59:56.641Z,10.30
2019-02-20T01:02:25.052Z,11.70
2019-02-20T01:04:53.415Z,11.50
2019-02-20T01:07:21.874Z,12.17
2019-02-20T01:09:50.349Z,11.23
2019-02-20T01:12:18.795Z,11.20
2019-02-20T01:14:47.161Z,10.63
2019-02-20T01:17:15.611Z,10.67
2019-02-20T01:19:44.058Z,11.90
2019-02-20T01:22:12.497Z,12.73
2019-02-20T01:24:41.017Z,10.50
2019-02-20T01:27:09.472Z,11.27
2019-02-20T01:29:37.848Z,12.00
2019-02-20T01:32:06.581Z,10.93
2019-02-20T01:34:35.059Z,12.47
2019-02-20T01:37:03.508Z,11.50
2019-02-20T01:39:51.111Z,11.80
2019-02-20T01:42:19.605Z,11.37
2019-02-20T01:44:48.016Z,11.63
2019-02-20T01:47:16.420Z,11.73
2019-02-20T01:49:44.817Z,10.93
2019-02-20T01:52:13.303Z,12.37
2019-02-20T01:54:41.711Z,12.80
2019-02-20T01:57:10.126Z,11.17
2019-02-20T01:59:38.503Z,12.60
2019-02-20T02:02:06.884Z,10.97
2019-02-20T02:04:35.416Z,11.93
2019-02-20T02:07:03.947Z,11.97
2019-02-20T02:09:32.408Z,12.47
2019-02-20T02:12:01.256Z,12.00
2019-02-20T02:14:31.395Z,13.40
2019-02-20T02:16:59.767Z,12.27
2019-02-20T02:19:28.156Z,12.37
2019-02-20T02:21:56.615Z,11.77
2019-02-20T02:24:25.061Z,12.60
2019-02-20T02:26:53.564Z,12.30
2019-02-20T02:29:22.018Z,11.47
2019-02-20T02:31:50.472Z,11.97
2019-02-20T02:34:19.032Z,12.10
2019-02-20T02:36:47.493Z,13.03
2019-02-20T02:39:15.870Z,12.60
2019-02-20T02:41:44.933Z,12.97
2019-02-20T02:44:13.380Z,12.77
2019-02-20T02:46:41.826Z,12.13
2019-02-20T02:49:10.229Z,12.17
2019-02-20T02:51:38.747Z,12.13
2019-02-20T02:54:07.216Z,12.37
2019-02-20T02:56:35.692Z,12.90
2019-02-20T02:59:04.190Z,12.70
2019-02-20T03:01:32.565Z,11.97
2019-02-20T03:04:01.143Z,13.37
2019-02-20T03:06:29.582Z,11.27
2019-02-20T03:08:57.947Z,11.40
2019-02-20T03:11:26.356Z,12.20
2019-02-20T03:13:54.798Z,12.90
2019-02-20T03:16:23.335Z,11.53
2019-02-20T03:18:51.733Z,11.90
2019-02-20T03:21:20.124Z,12.57
2019-02-20T03:23:48.559Z,12.23
2019-02-20T03:26:16.976Z,11.23
2019-02-20T03:28:45.344Z,12.23
2019-02-20T03:31:13.745Z,10.57
2019-02-20T03:33:42.120Z,11.80
2019-02-20T03:36:10.499Z,11.53
2019-02-20T03:38:38.861Z,12.03
2019-02-20T03:41:07.341Z,12.17
2019-02-20T03:43:41.766Z,12.30
2019-02-20T03:46:10.213Z,12.33
2019-02-20T03:48:38.571Z,13.73
2019-02-20T03:51:07.029Z,12.40
2019-02-20T03:53:35.419Z,12.80
2019-02-20T03:56:03.853Z,12.83
2019-02-20T03:58:33.345Z,11.77
2019-02-20T04:01:02.064Z,13.07
2019-02-20T04:03:30.481Z,13.20
2019-02-20T04:05:58.940Z,12.93
2019-02-20T04:08:27.530Z,12.50
2019-02-20T04:14:21.541Z,13.83
2019-02-20T04:16:49.998Z,13.67
2019-02-20T04:19:18.401Z,14.37
2019-02-20T04:21:46.891Z,13.10
2019-02-20T04:24:15.296Z,13.63
2019-02-20T04:26:43.743Z,14.23
2019-02-20T04:29:12.224Z,14.90
2019-02-20T04:31:40.667Z,13.60
2019-02-20T04:34:09.104Z,14.33
2019-02-20T04:36:37.525Z,15.60
2019-02-20T04:39:06.168Z,14.40
2019-02-20T04:41:34.600Z,13.07
2019-02-20T04:44:03.147Z,15.03
2019-02-20T04:46:31.588Z,13.67
2019-02-20T04:48:59.956Z,14.27
2019-02-20T04:51:28.463Z,13.87
2019-02-20T04:53:56.901Z,15.97
2019-02-20T04:56:25.264Z,15.07
2019-02-20T04:58:56.183Z,14.53
2019-02-20T05:01:24.673Z,14.07
2019-02-20T05:03:53.052Z,14.50
2019-02-20T05:06:21.433Z,14.93
2019-02-20T05:08:49.881Z,14.07
2019-02-20T05:11:18.309Z,13.50
2019-02-20T05:13:46.672Z,14.17
2019-02-20T05:16:15.078Z,13.83
2019-02-20T05:18:43.508Z,14.27
2019-02-20T05:21:11.947Z,14.33
2019-02-20T05:23:42.657Z,14.17
2019-02-20T05:26:11.482Z,13.90
2019-02-20T05:28:40.047Z,13.93
2019-02-20T05:31:08.492Z,14.43
2019-02-20T05:33:36.996Z,14.63
2019-02-20T05:36:05.378Z,14.20
2019-02-20T05:38:33.823Z,14.53
2019-02-20T05:41:02.203Z,14.07
2019-02-20T05:43:30.594Z,13.20
2019-02-20T05:45:59.084Z,14.23
2019-02-20T05:48:27.502Z,14.53
2019-02-20T05:50:56.005Z,13.10
2019-02-20T05:53:24.368Z,14.40
2019-02-20T05:55:52.833Z,14.87
2019-02-20T05:58:21.246Z,14.37
2019-02-20T06:00:49.593Z,13.70
2019-02-20T06:03:18.154Z,14.23
2019-02-20T06:05:46.636Z,13.77
2019-02-20T06:08:15.082Z,14.07
2019-02-20T06:10:44.948Z,13.33
2019-02-20T06:13:13.518Z,13.73
2019-02-20T06:15:43.113Z,13.67
2019-02-20T06:18:12.260Z,12.67
2019-02-20T06:20:40.779Z,13.23
2019-02-20T06:23:09.212Z,13.10
2019-02-20T06:25:37.654Z,12.37
2019-02-20T06:28:06.146Z,11.50
2019-02-20T06:30:34.633Z,12.73
2019-02-20T06:33:03.057Z,13.30
2019-02-20T06:35:31.435Z,14.53
2019-02-20T06:37:59.808Z,12.90
2019-02-20T06:40:28.179Z,12.67
2019-02-20T06:42:56.599Z,13.57
2019-02-20T06:45:25.046Z,12.07
2019-02-20T06:47:53.479Z,11.80
2019-02-20T06:50:21.890Z,12.17
2019-02-20T06:52:50.266Z,12.43
2019-02-20T06:55:18.773Z,12.90
2019-02-20T06:57:47.164Z,12.47
2019-02-20T07:00:15.619Z,12.93
2019-02-20T07:02:44.091Z,13.13
2019-02-20T07:05:29.638Z,12.37
2019-02-20T07:08:20.237Z,13.93
2019-02-20T07:11:07.852Z,11.97
2019-02-20T07:13:55.767Z,11.80
2019-02-20T07:16:42.145Z,11.33
2019-02-20T07:19:22.844Z,12.20
2019-02-20T07:22:29.060Z,11.27
2019-02-20T07:25:15.071Z,12.07
2019-02-20T07:28:08.666Z,10.93
2019-02-20T07:30:37.152Z,11.70
2019-02-20T07:33:05.500Z,10.13
2019-02-20T07:35:33.916Z,11.03
2019-02-20T07:38:02.280Z,11.10
2019-02-20T07:40:30.746Z,12.43
2019-02-20T07:43:00.124Z,10.63
2019-02-20T07:45:28.480Z,10.80
2019-02-20T07:47:56.853Z,12.13
2019-02-20T07:50:25.324Z,10.33
2019-02-20T07:52:53.756Z,11.77
2019-02-20T07:55:22.190Z,9.70
2019-02-20T07:57:50.589Z,10.77
2019-02-20T08:00:18.965Z,10.33
2019-02-20T08:02:47.521Z,11.37
2019-02-20T08:05:15.990Z,10.23
2019-02-20T08:07:44.356Z,11.20
2019-02-20T08:10:12.990Z,10.77
2019-02-20T08:12:41.473Z,11.20
2019-02-20T08:15:10.679Z,10.20
2019-02-20T08:17:39.132Z,10.90
2019-02-20T08:20:08.172Z,10.30
2019-02-20T08:22:36.615Z,11.63
2019-02-20T08:25:05.247Z,12.13
2019-02-20T08:27:33.708Z,12.73
2019-02-20T08:30:02.233Z,10.30
2019-02-20T08:32:30.636Z,11.70
2019-02-20T08:34:59.043Z,11.23
2019-02-20T08:37:27.384Z,10.77
2019-02-20T08:39:55.754Z,10.77
2019-02-20T08:42:24.259Z,11.47
2019-02-20T08:44:52.616Z,11.63
2019-02-20T08:47:20.985Z,10.77
2019-02-20T08:49:49.480Z,10.93
2019-02-20T08:52:17.885Z,11.57
2019-02-20T08:54:46.243Z,11.60
2019-02-20T08:57:14.644Z,12.33
2019-02-20T08:59:43.020Z,11.23
2019-02-20T09:02:11.460Z,10.57
2019-02-20T09:04:39.843Z,10.13
2019-02-20T09:07:08.643Z,11.77
2019-02-20T09:09:37.088Z,11.37
2019-02-20T09:12:05.488Z,10.93
2019-02-20T09:14:33.925Z,11.07
2019-02-20T09:17:02.385Z,10.97
2019-02-20T09:19:30.772Z,11.97
2019-02-20T09:21:59.155Z,11.10
2019-02-20T09:24:27.605Z,10.87
2019-02-20T09:26:56.009Z,10.40
2019-02-20T09:29:24.372Z,10.73
2019-02-20T09:31:52.820Z,11.53
2019-02-20T09:34:21.223Z,12.30
2019-02-20T09:36:49.711Z,11.73
2019-02-20T09:39:37.276Z,11.10
2019-02-20T09:42:09.846Z,12.53
2019-02-20T09:44:47.610Z,13.50
2019-02-20T09:47:16.251Z,12.60
2019-02-20T09:49:44.636Z,14.00
2019-02-20T09:52:13.140Z,12.10
2019-02-20T09:54:41.527Z,11.53
2019-02-20T09:57:09.985Z,11.37
2019-02-20T09:59:39.228Z,10.80
2019-02-20T10:02:07.784Z,12.33
2019-02-20T10:04:36.164Z,13.03
2019-02-20T10:07:04.658Z,15.70
2019-02-20T10:09:33.027Z,12.83
2019-02-20T10:12:01.461Z,15.87
2019-02-20T10:14:30.124Z,13.00
2019-02-20T10:16:58.556Z,16.73
2019-02-20T10:19:26.936Z,17.87
2019-02-20T10:21:55.368Z,17.37
2019-02-20T10:24:23.808Z,19.03
2019-02-20T10:27:00.203Z,17.93
2019-02-20T10:29:23.011Z,16.10
2019-02-20T10:31:51.474Z,15.97
2019-02-20T10:34:19.847Z,18.70
2019-02-20T10:36:48.259Z,24.13
2019-02-20T10:39:16.784Z,20.17
2019-02-20T10:41:45.268Z,19.03
2019-02-20T10:44:13.783Z,18.07
2019-02-20T10:46:42.241Z,18.23
2019-02-20T10:49:10.693Z,25.77
2019-02-20T10:51:39.160Z,18.17
2019-02-20T10:54:07.661Z,17.93
2019-02-20T10:56:36.101Z,15.17
2019-02-20T10:59:04.580Z,18.83
2019-02-20T11:01:33.029Z,15.80
2019-02-20T11:04:01.445Z,15.13
2019-02-20T11:06:29.825Z,16.23
2019-02-20T11:08:58.247Z,14.40
2019-02-20T11:11:26.688Z,18.37
2019-02-20T11:13:55.191Z,16.33
2019-02-20T11:16:23.635Z,16.00
2019-02-20T11:18:52.207Z,20.10
2019-02-20T11:21:20.660Z,17.13
2019-02-20T11:23:49.097Z,15.53
2019-02-20T11:26:18.579Z,16.23
2019-02-20T11:28:47.296Z,18.13
2019-02-20T11:31:15.719Z,17.73
2019-02-20T11:33:44.235Z,18.70
2019-02-20T11:36:12.689Z,16.20
2019-02-20T11:38:41.152Z,16.37
2019-02-20T11:41:09.565Z,16.10
2019-02-20T11:43:41.473Z,16.43
2019-02-20T11:46:09.948Z,16.37
2019-02-20T11:48:38.336Z,17.03
2019-02-20T11:51:06.821Z,15.57
2019-02-20T11:53:37.202Z,16.97
2019-02-20T11:56:05.372Z,15.53
2019-02-20T11:58:33.799Z,17.20
2019-02-20T12:01:02.339Z,16.23
2019-02-20T12:03:30.715Z,16.00
2019-02-20T12:05:59.231Z,16.53
2019-02-20T12:08:27.719Z,17.00
2019-02-20T12:10:56.295Z,17.63
2019-02-20T12:13:24.808Z,16.77
2019-02-20T12:15:53.700Z,15.63
2019-02-20T12:18:22.195Z,16.40
2019-02-20T12:20:50.782Z,16.90
2019-02-20T12:23:19.220Z,15.87
2019-02-20T12:25:47.684Z,15.43
2019-02-20T12:28:16.164Z,15.57
2019-02-20T12:30:44.543Z,15.83
2019-02-20T12:33:13.188Z,15.97
2019-02-20T12:35:42.324Z,14.63
2019-02-20T12:38:10.804Z,14.93
2019-02-20T12:40:39.617Z,14.70
2019-02-20T12:43:09.058Z,14.37
2019-02-20T12:45:37.530Z,14.67
2019-02-20T12:48:06.073Z,16.10
2019-02-20T12:50:34.453Z,14.30
2019-02-20T12:53:02.932Z,15.50
2019-02-20T12:55:31.393Z,16.10
2019-02-20T12:57:59.860Z,17.90
2019-02-20T13:00:28.531Z,16.07
2019-02-20T13:02:57.000Z,15.60
2019-02-20T13:05:25.737Z,15.33
2019-02-20T13:07:54.287Z,19.43
2019-02-20T13:10:22.774Z,23.93
2019-02-20T13:12:51.208Z,26.67
2019-02-20T13:15:19.710Z,34.17
2019-02-20T13:17:48.144Z,30.27
2019-02-20T13:20:16.507Z,32.37
2019-02-20T13:22:44.949Z,34.60
2019-02-20T13:25:13.426Z,35.40
2019-02-20T13:27:41.929Z,31.27
2019-02-20T13:30:10.547Z,28.37
2019-02-20T13:32:39.084Z,25.43
2019-02-20T13:35:07.521Z,22.27
2019-02-20T13:37:35.972Z,21.37
2019-02-20T13:40:05.721Z,20.27
2019-02-20T13:42:34.117Z,20.70
2019-02-20T13:45:21.696Z,21.37
2019-02-20T13:47:50.153Z,19.03
2019-02-20T13:50:18.712Z,19.63
2019-02-20T13:52:52.306Z,22.17
2019-02-20T13:55:17.442Z,23.80
2019-02-20T13:57:45.950Z,19.90
2019-02-20T14:00:14.447Z,20.43
2019-02-20T14:02:43.017Z,20.97
2019-02-20T14:05:11.579Z,19.00
2019-02-20T14:07:40.443Z,20.27
2019-02-20T14:10:09.593Z,21.53
2019-02-20T14:12:38.215Z,21.13
2019-02-20T14:15:07.364Z,19.23
2019-02-20T14:17:35.863Z,18.10
2019-02-20T14:20:04.631Z,18.27
2019-02-20T14:22:33.170Z,16.63
2019-02-20T14:25:02.775Z,13.17
2019-02-20T14:27:32.459Z,12.37
2019-02-20T14:30:00.947Z,13.77
2019-02-20T14:32:29.444Z,13.17
2019-02-20T14:34:57.906Z,12.03
2019-02-20T14:37:26.456Z,12.50
2019-02-20T14:39:55.334Z,13.40
2019-02-20T14:42:23.805Z,13.13
2019-02-20T14:44:52.319Z,13.90
2019-02-20T14:47:20.783Z,13.00
2019-02-20T14:49:49.242Z,11.60
2019-02-20T14:52:18.621Z,12.70
2019-02-20T14:54:47.267Z,13.00
2019-02-20T14:57:25.469Z,13.27
2019-02-20T14:59:53.956Z,13.00
2019-02-20T15:02:22.479Z,12.63
2019-02-20T15:04:50.940Z,11.67
2019-02-20T15:07:19.382Z,12.33
2019-02-20T15:09:47.875Z,12.10
2019-02-20T15:12:16.676Z,12.30
2019-02-20T15:14:45.159Z,12.33
2019-02-20T15:17:14.613Z,13.07
2019-02-20T15:19:43.162Z,12.03
2019-02-20T15:22:11.601Z,12.33
2019-02-20T15:24:40.055Z,12.10
2019-02-20T15:27:08.934Z,12.97
2019-02-20T15:29:37.474Z,13.90
2019-02-20T15:32:05.949Z,13.43
2019-02-20T15:34:34.463Z,13.20
2019-02-20T15:37:02.994Z,14.30
2019-02-20T15:39:31.554Z,13.93
2019-02-20T15:42:00.215Z,12.73
2019-02-20T15:44:29.060Z,12.10
2019-02-20T15:46:57.537Z,13.03
2019-02-20T15:49:26.050Z,12.23
2019-02-20T15:51:54.542Z,11.87
2019-02-20T15:54:23.150Z,11.27
2019-02-20T15:56:51.679Z,12.03
2019-02-20T15:59:20.242Z,11.80
2019-02-20T16:01:48.950Z,11.43
2019-02-20T16:04:17.568Z,12.07
2019-02-20T16:06:46.041Z,11.83
2019-02-20T16:09:14.526Z,11.23
2019-02-20T16:11:43.025Z,11.87
2019-02-20T16:14:11.674Z,11.97
2019-02-20T16:16:40.746Z,12.10
2019-02-20T16:19:09.340Z,11.23
2019-02-20T16:21:37.820Z,11.93
2019-02-20T16:24:06.270Z,12.27
2019-02-20T16:26:34.684Z,11.33
2019-02-20T16:29:03.371Z,12.00
2019-02-20T16:31:31.802Z,12.23
2019-02-20T16:34:00.547Z,11.33
2019-02-20T16:36:28.924Z,10.33
2019-02-20T16:38:57.377Z,11.07
2019-02-20T16:41:25.808Z,10.67
2019-02-20T16:43:54.188Z,9.97
2019-02-20T16:46:22.623Z,10.07
2019-02-20T16:48:51.003Z,10.00
2019-02-20T16:51:19.694Z,10.70
2019-02-20T16:53:48.120Z,9.13
2019-02-20T16:56:16.553Z,9.37
2019-02-20T16:58:44.997Z,9.70
2019-02-20T17:01:13.422Z,9.20
2019-02-20T17:03:42.000Z,8.93
2019-02-20T17:06:10.460Z,10.43
2019-02-20T17:08:40.677Z,9.90
2019-02-20T17:11:09.141Z,9.73
2019-02-20T17:13:39.513Z,10.00
2019-02-20T17:16:07.832Z,9.50
2019-02-20T17:18:36.276Z,10.27
2019-02-20T17:21:04.732Z,9.47
2019-02-20T17:23:33.550Z,9.53
2019-02-20T17:26:01.930Z,11.08
2019-02-20T17:28:30.394Z,9.80
2019-02-20T17:30:58.941Z,8.87
2019-02-20T17:33:27.405Z,10.67
2019-02-20T17:35:56.041Z,9.20
2019-02-20T17:38:24.623Z,10.87
2019-02-20T17:40:53.328Z,9.17
2019-02-20T17:43:21.800Z,9.80
2019-02-20T17:45:50.242Z,9.00
2019-02-20T17:48:19.184Z,9.17
2019-02-20T17:50:47.841Z,9.57
2019-02-20T17:53:16.232Z,9.77
2019-02-20T17:55:44.960Z,10.10
2019-02-20T17:58:15.427Z,8.60
2019-02-20T18:00:43.740Z,9.00
2019-02-20T18:03:12.273Z,9.67
2019-02-20T18:05:40.720Z,9.07
2019-02-20T18:08:09.182Z,9.47
2019-02-20T18:10:37.740Z,9.90
2019-02-20T18:13:06.682Z,10.30
2019-02-20T18:15:35.169Z,10.30
2019-02-20T18:18:03.959Z,8.83
2019-02-20T18:20:32.436Z,10.10
2019-02-20T18:23:00.896Z,9.53
2019-02-20T18:25:30.263Z,9.30
2019-02-20T18:27:59.686Z,10.43
2019-02-20T18:30:28.180Z,9.83
2019-02-20T18:32:56.615Z,9.80
2019-02-20T18:35:26.297Z,10.67
2019-02-20T18:37:55.108Z,11.27
2019-02-20T18:40:23.676Z,13.32
2019-02-20T18:42:52.201Z,11.77
2019-02-20T18:45:20.705Z,11.47
2019-02-20T18:47:49.196Z,10.33
2019-02-20T18:50:17.701Z,12.63
2019-02-20T18:52:46.169Z,12.97
2019-02-20T18:55:14.652Z,12.30
2019-02-20T18:57:43.155Z,14.00
2019-02-20T19:00:12.494Z,14.03
2019-02-20T19:02:41.024Z,13.50
2019-02-20T19:05:09.728Z,25.33
2019-02-20T19:07:38.217Z,15.13
2019-02-20T19:10:08.583Z,15.73
2019-02-20T19:13:08.275Z,17.77
2019-02-20T19:15:43.084Z,14.33
2019-02-20T19:18:33.715Z,33.27
2019-02-20T19:21:05.477Z,77.13
2019-02-20T19:23:56.131Z,47.90
2019-02-20T19:26:46.783Z,35.60
2019-02-20T19:29:38.474Z,37.43
2019-02-20T19:32:22.643Z,94.43
2019-02-20T19:35:19.730Z,201.00
2019-02-20T19:38:06.537Z,107.43
2019-02-20T19:40:43.973Z,76.50
2019-02-20T19:43:33.402Z,27.47
2019-02-20T19:46:27.076Z,27.97
2019-02-20T19:49:02.842Z,16.43
2019-02-20T19:51:36.438Z,16.10
2019-02-20T19:54:15.083Z,28.03
2019-02-20T19:57:05.738Z,24.17
2019-02-20T19:59:40.292Z,16.87
2019-02-20T20:02:28.525Z,18.60
2019-02-20T20:05:16.003Z,14.60
2019-02-20T20:08:03.664Z,16.10
2019-02-20T20:10:43.569Z,15.07
2019-02-20T20:13:19.200Z,28.53
2019-02-20T20:16:05.880Z,30.57
2019-02-20T20:19:02.971Z,25.73
2019-02-20T20:21:50.898Z,20.77
2019-02-20T20:24:51.038Z,22.63
2019-02-20T20:27:41.699Z,19.90
2019-02-20T20:30:41.472Z,19.23
2019-02-20T20:33:27.961Z,18.67
2019-02-20T20:36:14.503Z,18.80
2019-02-20T20:39:05.431Z,30.80
2019-02-20T20:41:53.059Z,20.73
2019-02-20T20:44:28.052Z,18.43
2019-02-20T20:47:01.434Z,18.70
2019-02-20T20:49:52.155Z,16.70
2019-02-20T20:52:33.076Z,16.17
2019-02-20T20:55:19.660Z,15.30
2019-02-20T20:58:06.192Z,14.73
2019-02-20T21:01:00.200Z,15.80
2019-02-20T21:03:28.876Z,15.10
2019-02-20T21:06:16.491Z,14.87
2019-02-20T21:08:50.516Z,14.40
2019-02-20T21:11:38.369Z,15.13
2019-02-20T21:14:28.937Z,16.03
2019-02-20T21:17:34.883Z,15.03
2019-02-20T21:20:10.325Z,15.50
2019-02-20T21:22:46.385Z,15.80
2019-02-20T21:25:32.744Z,15.50
2019-02-20T21:28:26.220Z,16.23
2019-02-20T21:31:26.305Z,15.77
2019-02-20T21:34:16.944Z,15.07
2019-02-20T21:36:49.139Z,15.23
2019-02-20T21:39:21.560Z,17.10
2019-02-20T21:41:59.292Z,16.93
2019-02-20T21:44:33.272Z,17.70
2019-02-20T21:47:14.967Z,17.13
2019-02-20T21:49:46.148Z,17.47
2019-02-20T21:52:25.043Z,18.13
2019-02-20T21:55:26.912Z,18.10
2019-02-20T21:58:06.130Z,17.47
2019-02-20T22:00:51.729Z,16.70
2019-02-20T22:03:48.671Z,17.37
2019-02-20T22:06:23.843Z,17.13
2019-02-20T22:09:09.815Z,16.40
2019-02-20T22:12:03.673Z,16.67
2019-02-20T22:14:35.947Z,17.60
2019-02-20T22:17:12.627Z,17.23
2019-02-20T22:19:45.457Z,18.00
2019-02-20T22:22:45.245Z,18.13
2019-02-20T22:25:31.951Z,17.07
2019-02-20T22:28:20.919Z,18.17
2019-02-20T22:30:58.715Z,19.17
2019-02-20T22:33:46.163Z,17.87
2019-02-20T22:36:32.583Z,17.97
2019-02-20T22:39:20.181Z,19.17
2019-02-20T22:42:07.999Z,17.93
2019-02-20T22:44:55.604Z,19.57
2019-02-20T22:47:31.290Z,16.90
2019-02-20T22:50:31.003Z,18.00
2019-02-20T22:53:02.011Z,17.67
2019-02-20T22:55:40.067Z,18.00
2019-02-20T22:58:13.551Z,18.23
2019-02-20T23:01:00.198Z,17.80
2019-02-20T23:03:34.323Z,16.43
2019-02-20T23:06:18.452Z,17.80
2019-02-20T23:09:05.248Z,17.97
2019-02-20T23:11:47.375Z,18.50
2019-02-20T23:14:51.331Z,17.57
2019-02-20T23:17:19.824Z,16.90
2019-02-20T23:19:48.256Z,18.90
2019-02-20T23:22:16.706Z,18.60
2019-02-20T23:24:45.159Z,18.83
2019-02-20T23:27:13.600Z,18.70
2019-02-20T23:29:42.040Z,17.53
2019-02-20T23:32:10.504Z,18.23
2019-02-20T23:34:38.952Z,17.87
2019-02-20T23:37:07.408Z,18.53
2019-02-20T23:39:35.803Z,16.53
2019-02-20T23:42:04.334Z,16.90
2019-02-20T23:44:32.780Z,18.37
2019-02-20T23:47:01.317Z,18.17
2019-02-20T23:49:30.052Z,17.23
2019-02-20T23:51:58.588Z,18.67
2019-02-20T23:54:27.109Z,17.37
2019-02-20T23:56:55.543Z,17.50
2019-02-20T23:59:23.895Z,16.90
